createdAt,value
2019-01-08T00:01:49.034Z,41.63
2019-01-08T00:04:17.717Z,48.30
2019-01-08T00:06:46.379Z,41.20
2019-01-08T00:09:15.057Z,44.23
2019-01-08T00:11:43.744Z,40.43
2019-01-08T00:14:12.807Z,40.47
2019-01-08T00:16:41.490Z,44.47
2019-01-08T00:19:10.175Z,56.33
2019-01-08T00:21:39.010Z,36.57
2019-01-08T00:24:07.687Z,35.10
2019-01-08T00:26:36.443Z,34.53
2019-01-08T00:29:05.381Z,34.77
2019-01-08T00:31:35.642Z,36.23
2019-01-08T00:34:04.328Z,36.57
2019-01-08T00:36:33.079Z,31.57
2019-01-08T00:39:01.778Z,25.33
2019-01-08T00:41:30.462Z,26.53
2019-01-08T00:43:59.189Z,25.20
2019-01-08T00:46:27.872Z,26.90
2019-01-08T00:48:56.563Z,26.93
2019-01-08T00:51:25.316Z,31.17
2019-01-08T00:53:54.012Z,31.43
2019-01-08T00:56:22.708Z,32.30
2019-01-08T00:58:51.897Z,39.00
2019-01-08T01:01:20.696Z,33.97
2019-01-08T01:03:49.372Z,33.57
2019-01-08T01:06:18.139Z,30.90
2019-01-08T01:08:46.756Z,29.83
2019-01-08T01:11:15.449Z,29.30
2019-01-08T01:13:44.179Z,34.60
2019-01-08T01:16:13.114Z,29.63
2019-01-08T01:18:41.844Z,32.23
2019-01-08T01:21:10.686Z,33.33
2019-01-08T01:23:39.370Z,31.17
2019-01-08T01:26:08.057Z,30.97
2019-01-08T01:28:36.905Z,35.63
2019-01-08T01:31:05.593Z,34.90
2019-01-08T01:33:34.280Z,31.43
2019-01-08T01:36:03.011Z,29.83
2019-01-08T01:38:31.705Z,31.37
2019-01-08T01:41:00.385Z,30.80
2019-01-08T01:43:29.188Z,22.50
2019-01-08T01:45:57.877Z,30.63
2019-01-08T01:48:26.555Z,25.77
2019-01-08T01:50:55.379Z,26.83
2019-01-08T01:53:24.068Z,29.23
2019-01-08T01:55:52.753Z,37.80
2019-01-08T01:58:21.528Z,41.30
2019-01-08T02:00:50.213Z,48.60
2019-01-08T02:03:18.896Z,33.60
2019-01-08T02:05:47.760Z,30.10
2019-01-08T02:08:16.440Z,28.80
2019-01-08T02:10:45.122Z,29.27
2019-01-08T02:13:15.352Z,29.83
2019-01-08T02:15:44.034Z,32.73
2019-01-08T02:18:13.635Z,39.20
2019-01-08T02:20:42.504Z,44.00
2019-01-08T02:23:11.192Z,35.93
2019-01-08T02:25:39.879Z,35.23
2019-01-08T02:28:10.342Z,34.90
2019-01-08T02:30:39.029Z,26.87
2019-01-08T02:33:07.719Z,27.43
2019-01-08T02:35:36.445Z,31.97
2019-01-08T02:38:05.128Z,26.63
2019-01-08T02:40:33.934Z,26.73
2019-01-08T02:43:02.640Z,25.50
2019-01-08T02:45:31.729Z,22.23
2019-01-08T02:48:00.435Z,28.50
2019-01-08T02:50:29.267Z,30.13
2019-01-08T02:52:57.953Z,38.07
2019-01-08T02:55:26.638Z,42.60
2019-01-08T02:57:55.472Z,33.80
2019-01-08T03:00:24.149Z,35.03
2019-01-08T03:02:52.837Z,34.47
2019-01-08T03:05:21.857Z,29.93
2019-01-08T03:07:50.478Z,26.53
2019-01-08T03:10:19.171Z,22.63
2019-01-08T03:12:48.041Z,26.60
2019-01-08T03:15:16.747Z,29.77
2019-01-08T03:17:45.350Z,27.17
2019-01-08T03:20:14.177Z,22.03
2019-01-08T03:22:42.860Z,25.93
2019-01-08T03:25:11.541Z,25.27
2019-01-08T03:27:40.386Z,27.67
2019-01-08T03:30:09.068Z,36.10
2019-01-08T03:32:37.746Z,52.27
2019-01-08T03:35:06.800Z,72.47
2019-01-08T03:37:35.477Z,60.87
2019-01-08T03:40:05.275Z,37.30
2019-01-08T03:42:34.012Z,29.43
2019-01-08T03:45:02.697Z,23.83
2019-01-08T03:47:31.387Z,26.73
2019-01-08T03:50:00.355Z,24.20
2019-01-08T03:52:29.039Z,30.80
2019-01-08T03:54:57.736Z,24.23
2019-01-08T03:57:26.579Z,29.10
2019-01-08T03:59:55.275Z,28.63
2019-01-08T04:02:23.961Z,26.47
2019-01-08T04:04:52.899Z,33.20
2019-01-08T04:07:21.606Z,31.80
2019-01-08T04:09:50.267Z,33.07
2019-01-08T04:12:19.220Z,33.90
2019-01-08T04:14:47.828Z,31.50
2019-01-08T04:17:16.510Z,37.90
2019-01-08T04:19:45.236Z,37.47
2019-01-08T04:22:13.957Z,38.33
2019-01-08T04:24:42.640Z,33.90
2019-01-08T04:27:11.393Z,28.20
2019-01-08T04:29:40.080Z,32.80
2019-01-08T04:32:08.770Z,38.87
2019-01-08T04:34:37.488Z,28.63
2019-01-08T04:37:06.172Z,27.97
2019-01-08T04:39:34.855Z,30.33
2019-01-08T04:42:03.694Z,33.50
2019-01-08T04:44:32.371Z,36.43
2019-01-08T04:47:01.054Z,33.50
2019-01-08T04:49:29.815Z,57.53
2019-01-08T04:51:58.429Z,94.07
2019-01-08T04:54:27.107Z,71.13
2019-01-08T04:56:55.866Z,58.30
2019-01-08T04:59:24.546Z,58.73
2019-01-08T05:01:53.238Z,80.07
2019-01-08T05:04:22.098Z,115.90
2019-01-08T05:06:50.781Z,121.60
2019-01-08T05:09:19.466Z,128.40
2019-01-08T05:11:48.294Z,120.33
2019-01-08T05:14:16.989Z,104.10
2019-01-08T05:16:45.672Z,77.60
2019-01-08T05:19:14.424Z,66.87
2019-01-08T05:21:43.106Z,56.33
2019-01-08T05:24:11.932Z,71.50
2019-01-08T05:26:40.763Z,59.47
2019-01-08T05:29:09.447Z,88.50
2019-01-08T05:31:38.132Z,226.67
2019-01-08T05:34:06.948Z,108.23
2019-01-08T05:36:35.647Z,163.10
2019-01-08T05:39:04.843Z,250.80
2019-01-08T05:41:33.678Z,308.77
2019-01-08T05:44:02.368Z,177.23
2019-01-08T05:46:31.067Z,116.73
2019-01-08T05:48:59.827Z,112.07
2019-01-08T05:51:28.612Z,79.63
2019-01-08T05:53:57.319Z,68.63
2019-01-08T05:56:26.091Z,71.80
2019-01-08T05:58:54.775Z,66.47
2019-01-08T06:01:23.467Z,52.17
2019-01-08T06:03:52.385Z,61.87
2019-01-08T06:06:22.378Z,63.10
2019-01-08T06:08:51.068Z,57.27
2019-01-08T06:11:19.890Z,63.70
2019-01-08T06:13:48.576Z,78.60
2019-01-08T06:16:17.256Z,69.37
2019-01-08T06:18:45.977Z,73.47
2019-01-08T06:21:14.660Z,67.00
2019-01-08T06:23:43.338Z,85.53
2019-01-08T06:26:12.178Z,93.00
2019-01-08T06:28:40.879Z,97.87
2019-01-08T06:31:09.577Z,101.17
2019-01-08T06:33:38.414Z,113.90
2019-01-08T06:36:07.108Z,113.10
2019-01-08T06:38:35.815Z,141.93
2019-01-08T06:41:04.543Z,92.63
2019-01-08T06:43:33.230Z,135.90
2019-01-08T06:46:01.917Z,96.67
2019-01-08T06:48:30.656Z,106.30
2019-01-08T06:50:59.332Z,92.63
2019-01-08T06:53:28.016Z,86.80
2019-01-08T06:55:57.015Z,54.70
2019-01-08T06:58:25.777Z,64.47
2019-01-08T07:00:54.465Z,59.83
2019-01-08T07:03:23.210Z,46.73
2019-01-08T07:05:51.898Z,57.13
2019-01-08T07:08:20.622Z,47.30
2019-01-08T07:10:49.427Z,46.67
2019-01-08T07:13:18.120Z,38.93
2019-01-08T07:15:46.811Z,38.00
2019-01-08T07:18:15.667Z,40.93
2019-01-08T07:20:44.352Z,35.10
2019-01-08T07:23:13.039Z,42.13
2019-01-08T07:25:42.309Z,44.40
2019-01-08T07:28:13.969Z,42.00
2019-01-08T07:30:42.752Z,44.30
2019-01-08T07:33:11.433Z,50.53
2019-01-08T07:35:40.112Z,48.63
2019-01-08T07:38:08.858Z,72.73
2019-01-08T07:40:37.552Z,100.80
2019-01-08T07:43:06.237Z,136.13
2019-01-08T07:45:34.997Z,38.43
2019-01-08T07:48:03.671Z,39.87
2019-01-08T07:50:32.361Z,30.53
2019-01-08T07:53:01.249Z,39.10
2019-01-08T07:55:29.933Z,50.17
2019-01-08T07:57:58.631Z,38.80
2019-01-08T08:00:27.475Z,39.27
2019-01-08T08:02:56.169Z,36.27
2019-01-08T08:05:24.854Z,31.93
2019-01-08T08:07:54.526Z,40.30
2019-01-08T08:10:23.348Z,41.43
2019-01-08T08:12:51.960Z,38.10
2019-01-08T08:15:20.719Z,22.97
2019-01-08T08:17:49.415Z,30.17
2019-01-08T08:20:18.102Z,39.70
2019-01-08T08:22:46.922Z,66.97
2019-01-08T08:25:15.614Z,36.70
2019-01-08T08:27:44.299Z,38.50
2019-01-08T08:30:13.281Z,28.03
2019-01-08T08:32:41.965Z,29.33
2019-01-08T08:35:10.661Z,32.17
2019-01-08T08:37:39.485Z,39.17
2019-01-08T08:40:08.662Z,39.23
2019-01-08T08:42:37.350Z,29.13
2019-01-08T08:45:06.240Z,26.80
2019-01-08T08:47:34.923Z,29.13
2019-01-08T08:50:04.508Z,29.83
2019-01-08T08:52:33.519Z,31.13
2019-01-08T08:55:02.206Z,22.57
2019-01-08T08:57:30.887Z,24.57
2019-01-08T08:59:59.735Z,28.40
2019-01-08T09:02:28.425Z,72.27
2019-01-08T09:04:57.112Z,29.40
2019-01-08T09:07:26.099Z,27.70
2019-01-08T09:09:54.813Z,31.80
2019-01-08T09:12:23.502Z,24.60
2019-01-08T09:14:52.246Z,41.00
2019-01-08T09:17:20.935Z,26.77
2019-01-08T09:19:49.624Z,26.83
2019-01-08T09:22:18.480Z,31.27
2019-01-08T09:24:47.170Z,25.33
2019-01-08T09:27:15.848Z,28.20
2019-01-08T09:29:44.588Z,22.03
2019-01-08T09:32:13.420Z,23.40
2019-01-08T09:34:42.114Z,30.50
2019-01-08T09:37:10.926Z,26.90
2019-01-08T09:39:39.608Z,23.93
2019-01-08T09:42:08.302Z,31.47
2019-01-08T09:44:37.119Z,27.97
2019-01-08T09:47:05.803Z,54.97
2019-01-08T09:49:34.490Z,36.33
2019-01-08T09:52:03.390Z,30.37
2019-01-08T09:54:35.008Z,28.17
2019-01-08T09:57:05.287Z,28.20
2019-01-08T09:59:35.578Z,26.77
2019-01-08T10:02:04.382Z,21.00
2019-01-08T10:04:33.070Z,27.20
2019-01-08T10:07:01.838Z,21.00
2019-01-08T10:09:30.521Z,23.43
2019-01-08T10:11:59.210Z,44.50
2019-01-08T10:14:28.022Z,31.93
2019-01-08T10:16:56.713Z,27.77
2019-01-08T10:19:28.375Z,39.53
2019-01-08T10:21:57.218Z,26.80
2019-01-08T10:24:25.901Z,27.03
2019-01-08T10:26:54.605Z,38.37
2019-01-08T10:29:23.434Z,35.33
2019-01-08T10:31:52.109Z,33.43
2019-01-08T10:34:20.836Z,37.77
2019-01-08T10:36:49.560Z,31.40
2019-01-08T10:39:18.242Z,23.23
2019-01-08T10:41:46.930Z,24.23
2019-01-08T10:44:15.858Z,25.90
2019-01-08T10:46:44.538Z,46.37
2019-01-08T10:49:13.290Z,22.33
2019-01-08T10:51:42.035Z,28.47
2019-01-08T10:54:10.705Z,30.80
2019-01-08T10:56:39.376Z,35.40
2019-01-08T10:59:08.257Z,24.07
2019-01-08T11:01:40.609Z,27.47
2019-01-08T11:04:08.494Z,25.97
2019-01-08T11:06:37.184Z,35.53
2019-01-08T11:09:06.557Z,23.03
2019-01-08T11:11:35.510Z,30.00
2019-01-08T11:14:04.211Z,31.20
2019-01-08T11:16:32.887Z,19.27
2019-01-08T11:19:02.163Z,39.80
2019-01-08T11:21:30.850Z,30.50
2019-01-08T11:23:59.543Z,27.40
2019-01-08T11:26:28.376Z,27.57
2019-01-08T11:28:57.067Z,19.13
2019-01-08T11:31:25.741Z,20.27
2019-01-08T11:33:54.684Z,23.27
2019-01-08T11:36:23.387Z,29.90
2019-01-08T11:38:52.072Z,29.77
2019-01-08T11:41:20.839Z,22.60
2019-01-08T11:43:49.529Z,28.73
2019-01-08T11:46:18.219Z,24.43
2019-01-08T11:48:47.227Z,32.60
2019-01-08T11:51:15.914Z,19.60
2019-01-08T11:53:44.615Z,17.33
2019-01-08T11:56:13.435Z,24.87
2019-01-08T11:58:42.118Z,26.10
2019-01-08T12:01:10.813Z,39.43
2019-01-08T12:03:39.542Z,22.00
2019-01-08T12:06:08.245Z,18.60
2019-01-08T12:08:36.928Z,26.93
2019-01-08T12:11:05.685Z,26.50
2019-01-08T12:13:34.359Z,40.80
2019-01-08T12:16:03.042Z,23.30
2019-01-08T12:18:31.779Z,25.10
2019-01-08T12:21:00.489Z,41.77
2019-01-08T12:23:29.165Z,36.63
2019-01-08T12:25:57.986Z,26.03
2019-01-08T12:28:26.666Z,44.53
2019-01-08T12:30:55.361Z,21.33
2019-01-08T12:33:24.105Z,21.23
2019-01-08T12:35:52.887Z,22.97
2019-01-08T12:38:21.565Z,29.87
2019-01-08T12:40:50.292Z,14.23
2019-01-08T12:43:18.977Z,35.07
2019-01-08T12:45:47.651Z,26.93
2019-01-08T12:48:16.390Z,32.77
2019-01-08T12:50:45.074Z,21.13
2019-01-08T12:53:13.755Z,52.70
2019-01-08T12:55:42.596Z,33.03
2019-01-08T12:58:11.277Z,47.53
2019-01-08T13:00:39.962Z,26.23
2019-01-08T13:03:09.133Z,57.80
2019-01-08T13:05:37.813Z,90.80
2019-01-08T13:08:06.506Z,22.87
2019-01-08T13:10:35.260Z,43.63
2019-01-08T13:13:03.926Z,51.27
2019-01-08T13:15:32.685Z,35.33
2019-01-08T13:18:01.410Z,30.20
2019-01-08T13:20:30.110Z,31.10
2019-01-08T13:22:58.800Z,36.57
2019-01-08T13:25:27.589Z,25.73
2019-01-08T13:27:56.278Z,24.07
2019-01-08T13:30:25.032Z,46.13
2019-01-08T13:32:53.879Z,131.77
2019-01-08T13:35:22.586Z,120.60
2019-01-08T13:37:51.264Z,31.57
2019-01-08T13:40:20.244Z,72.80
2019-01-08T13:42:48.931Z,65.17
2019-01-08T13:45:17.612Z,81.33
2019-01-08T13:47:46.359Z,94.47
2019-01-08T13:50:15.044Z,95.70
2019-01-08T13:52:43.724Z,80.10
2019-01-08T13:55:12.568Z,90.33
2019-01-08T13:57:41.245Z,82.43
2019-01-08T14:00:09.927Z,88.00
2019-01-08T14:02:38.673Z,143.77
2019-01-08T14:05:07.479Z,176.73
2019-01-08T14:07:36.147Z,38.37
2019-01-08T14:10:05.774Z,39.17
2019-01-08T14:12:36.980Z,66.63
2019-01-08T14:15:06.181Z,70.13
2019-01-08T14:17:35.043Z,46.97
2019-01-08T14:20:03.932Z,163.03
2019-01-08T14:22:32.607Z,94.87
2019-01-08T14:25:01.328Z,127.90
2019-01-08T14:27:30.015Z,62.30
2019-01-08T14:29:58.714Z,50.57
2019-01-08T14:32:27.512Z,73.20
2019-01-08T14:34:56.194Z,58.10
2019-01-08T14:37:24.899Z,58.63
2019-01-08T14:39:53.753Z,67.77
2019-01-08T14:42:22.464Z,65.13
2019-01-08T14:44:51.125Z,69.30
2019-01-08T14:47:19.853Z,41.30
2019-01-08T14:49:48.545Z,45.33
2019-01-08T14:52:17.229Z,22.20
2019-01-08T14:54:46.142Z,58.37
2019-01-08T14:57:14.838Z,43.97
2019-01-08T14:59:43.547Z,49.73
2019-01-08T15:02:12.302Z,53.93
2019-01-08T15:04:41.007Z,62.40
2019-01-08T15:07:09.697Z,93.77
2019-01-08T15:09:38.639Z,96.80
2019-01-08T15:12:07.322Z,80.17
2019-01-08T15:14:36.010Z,77.40
2019-01-08T15:17:06.456Z,94.73
2019-01-08T15:19:35.168Z,121.17
2019-01-08T15:22:03.859Z,94.13
2019-01-08T15:24:32.794Z,71.57
2019-01-08T15:27:01.477Z,57.87
2019-01-08T15:29:30.163Z,62.53
2019-01-08T15:31:58.905Z,65.50
2019-01-08T15:34:27.598Z,31.50
2019-01-08T15:36:56.297Z,35.47
2019-01-08T15:39:25.133Z,56.57
2019-01-08T15:41:53.818Z,102.97
2019-01-08T15:44:22.533Z,62.03
2019-01-08T15:46:51.280Z,37.00
2019-01-08T15:49:19.971Z,33.43
2019-01-08T15:51:48.651Z,35.83
2019-01-08T15:54:17.403Z,40.97
2019-01-08T15:56:46.085Z,45.57
2019-01-08T15:59:14.768Z,86.83
2019-01-08T16:01:43.499Z,63.10
2019-01-08T16:04:12.177Z,40.27
2019-01-08T16:06:40.859Z,40.47
2019-01-08T16:09:09.683Z,42.97
2019-01-08T16:11:38.368Z,61.13
2019-01-08T16:14:07.054Z,92.10
2019-01-08T16:16:35.778Z,403.70
2019-01-08T16:19:04.470Z,258.57
2019-01-08T16:21:33.166Z,239.00
2019-01-08T16:24:04.153Z,421.57
2019-01-08T16:26:32.852Z,486.93
2019-01-08T16:29:01.537Z,236.43
2019-01-08T16:31:30.469Z,225.77
2019-01-08T16:33:59.158Z,194.57
2019-01-08T16:36:28.758Z,201.03
2019-01-08T16:38:57.499Z,257.77
2019-01-08T16:41:26.195Z,296.53
2019-01-08T16:43:54.889Z,273.43
2019-01-08T16:46:23.770Z,374.87
2019-01-08T16:48:52.473Z,435.77
2019-01-08T16:51:21.179Z,418.90
2019-01-08T16:53:49.996Z,421.53
2019-01-08T16:56:19.805Z,331.00
2019-01-08T16:58:48.644Z,284.37
2019-01-08T17:01:17.569Z,269.40
2019-01-08T17:03:46.262Z,137.37
2019-01-08T17:06:14.939Z,123.60
2019-01-08T17:08:43.761Z,131.10
2019-01-08T17:11:12.439Z,98.43
2019-01-08T17:13:41.163Z,120.37
2019-01-08T17:16:10.006Z,92.63
2019-01-08T17:18:39.517Z,80.07
2019-01-08T17:21:08.236Z,68.53
2019-01-08T17:23:36.994Z,53.03
2019-01-08T17:26:05.681Z,53.03
2019-01-08T17:28:34.364Z,113.73
2019-01-08T17:31:03.106Z,107.37
2019-01-08T17:33:34.071Z,76.20
2019-01-08T17:36:02.205Z,96.00
2019-01-08T17:38:31.021Z,136.17
2019-01-08T17:40:59.717Z,138.83
2019-01-08T17:43:33.517Z,124.90
2019-01-08T17:45:59.123Z,132.13
2019-01-08T17:48:27.844Z,121.37
2019-01-08T17:50:56.550Z,130.03
2019-01-08T17:53:25.319Z,213.10
2019-01-08T17:55:54.014Z,268.77
2019-01-08T17:58:37.304Z,273.37
2019-01-08T18:01:11.595Z,311.47
2019-01-08T18:03:42.882Z,318.70
2019-01-08T18:06:10.778Z,342.73
2019-01-08T18:08:39.464Z,344.40
2019-01-08T18:11:08.160Z,290.73
2019-01-08T18:13:36.951Z,327.03
2019-01-08T18:16:05.639Z,320.20
2019-01-08T18:18:34.342Z,293.30
2019-01-08T18:21:03.208Z,385.77
2019-01-08T18:23:32.616Z,300.20
2019-01-08T18:26:01.310Z,228.13
2019-01-08T18:28:30.134Z,173.83
2019-01-08T18:30:58.833Z,175.53
2019-01-08T18:33:27.526Z,177.00
2019-01-08T18:35:56.441Z,174.87
2019-01-08T18:38:25.127Z,177.63
2019-01-08T18:40:55.282Z,182.10
2019-01-08T18:43:26.033Z,173.90
2019-01-08T18:45:54.688Z,182.97
2019-01-08T18:48:26.542Z,188.43
2019-01-08T18:50:55.449Z,163.30
2019-01-08T18:53:24.137Z,160.30
2019-01-08T18:55:52.821Z,163.37
2019-01-08T18:58:21.628Z,165.83
2019-01-08T19:00:50.313Z,159.50
2019-01-08T19:03:19.003Z,148.63
2019-01-08T19:05:47.750Z,157.67
2019-01-08T19:08:16.450Z,114.27
2019-01-08T19:10:46.586Z,89.30
2019-01-08T19:13:15.764Z,64.03
2019-01-08T19:15:44.451Z,55.50
2019-01-08T19:18:13.235Z,68.77
2019-01-08T19:20:43.616Z,57.07
2019-01-08T19:23:12.297Z,52.57
2019-01-08T19:25:40.980Z,60.03
2019-01-08T19:28:09.725Z,44.83
2019-01-08T19:30:38.389Z,75.20
2019-01-08T19:33:07.072Z,149.80
2019-01-08T19:35:35.933Z,247.13
2019-01-08T19:38:04.620Z,192.30
2019-01-08T19:40:33.311Z,153.10
2019-01-08T19:43:02.174Z,148.73
2019-01-08T19:45:30.858Z,164.30
2019-01-08T19:47:59.572Z,204.93
2019-01-08T19:50:28.392Z,222.87
2019-01-08T19:52:57.090Z,209.43
2019-01-08T19:55:25.782Z,233.43
2019-01-08T19:57:54.522Z,192.37
2019-01-08T20:00:23.211Z,373.37
2019-01-08T20:02:51.905Z,226.93
2019-01-08T20:05:20.894Z,237.40
2019-01-08T20:07:49.580Z,177.93
2019-01-08T20:10:18.265Z,144.87
2019-01-08T20:12:47.005Z,166.43
2019-01-08T20:15:15.699Z,187.60
2019-01-08T20:17:44.385Z,206.27
2019-01-08T20:20:13.116Z,240.30
2019-01-08T20:22:41.809Z,201.83
2019-01-08T20:25:10.511Z,214.27
2019-01-08T20:27:39.236Z,245.10
2019-01-08T20:30:08.807Z,245.53
2019-01-08T20:32:39.591Z,268.37
2019-01-08T20:35:10.219Z,242.33
2019-01-08T20:37:39.105Z,265.90
2019-01-08T20:40:09.966Z,266.80
2019-01-08T20:42:38.283Z,259.70
2019-01-08T20:45:07.233Z,252.73
2019-01-08T20:47:35.955Z,266.27
2019-01-08T20:50:05.610Z,265.90
2019-01-08T20:52:34.310Z,263.50
2019-01-08T20:55:03.010Z,248.93
2019-01-08T20:57:31.853Z,248.37
2019-01-08T21:00:00.658Z,241.63
2019-01-08T21:02:33.809Z,223.23
2019-01-08T21:05:02.702Z,201.53
2019-01-08T21:07:31.348Z,197.50
2019-01-08T21:10:00.043Z,184.43
2019-01-08T21:12:29.049Z,159.00
2019-01-08T21:14:57.747Z,166.33
2019-01-08T21:17:26.433Z,170.73
2019-01-08T21:19:55.176Z,131.77
2019-01-08T21:22:23.869Z,107.07
2019-01-08T21:24:52.559Z,88.27
2019-01-08T21:27:21.301Z,56.30
2019-01-08T21:29:49.983Z,42.77
2019-01-08T21:32:18.670Z,38.27
2019-01-08T21:34:47.498Z,75.30
2019-01-08T21:37:16.191Z,67.60
2019-01-08T21:39:44.862Z,40.53
2019-01-08T21:42:13.585Z,37.97
2019-01-08T21:44:42.271Z,34.67
2019-01-08T21:47:10.956Z,34.43
2019-01-08T21:49:39.783Z,39.17
2019-01-08T21:52:08.467Z,24.83
2019-01-08T21:54:37.167Z,25.70
2019-01-08T21:57:06.009Z,22.53
2019-01-08T21:59:34.690Z,25.30
2019-01-08T22:02:03.382Z,25.50
2019-01-08T22:04:32.529Z,26.87
2019-01-08T22:07:01.211Z,34.47
2019-01-08T22:09:29.896Z,35.90
2019-01-08T22:11:58.902Z,34.07
2019-01-08T22:14:27.597Z,50.27
2019-01-08T22:16:56.289Z,55.93
2019-01-08T22:19:25.132Z,57.67
2019-01-08T22:21:53.806Z,57.23
2019-01-08T22:24:22.493Z,46.07
2019-01-08T22:26:51.306Z,42.10
2019-01-08T22:29:20.001Z,42.67
2019-01-08T22:31:49.092Z,45.20
2019-01-08T22:34:18.095Z,42.27
2019-01-08T22:36:46.876Z,42.67
2019-01-08T22:39:15.564Z,41.73
2019-01-08T22:41:44.287Z,40.93
2019-01-08T22:44:13.380Z,47.60
2019-01-08T22:46:42.070Z,43.07
2019-01-08T22:49:10.918Z,52.23
2019-01-08T22:51:40.314Z,59.03
2019-01-08T22:54:08.990Z,71.73
2019-01-08T22:56:38.001Z,77.13
2019-01-08T22:59:06.694Z,78.50
2019-01-08T23:01:36.944Z,73.77
2019-01-08T23:04:07.268Z,111.87
2019-01-08T23:06:35.946Z,79.33
2019-01-08T23:09:06.799Z,105.13
2019-01-08T23:11:37.418Z,57.63
2019-01-08T23:14:05.949Z,61.17
2019-01-08T23:16:34.631Z,78.43
2019-01-08T23:19:03.347Z,92.17
2019-01-08T23:21:32.032Z,105.60
2019-01-08T23:24:00.731Z,101.60
2019-01-08T23:26:29.575Z,134.40
2019-01-08T23:28:58.259Z,100.50
2019-01-08T23:31:26.945Z,116.00
2019-01-08T23:33:55.746Z,120.17
2019-01-08T23:36:24.431Z,133.33
2019-01-08T23:38:53.123Z,135.77
2019-01-08T23:41:21.870Z,136.03
2019-01-08T23:43:50.487Z,101.03
2019-01-08T23:46:19.179Z,60.10
2019-01-08T23:48:47.970Z,40.23
2019-01-08T23:51:16.654Z,30.57
2019-01-08T23:53:46.180Z,31.30
2019-01-08T23:56:14.923Z,34.50
2019-01-08T23:58:43.602Z,36.57
